sensor_id;sensor_type;location;lat;lon;timestamp;temperature;humidity
71291;DHT22;59073;51.994;4.448;2023-09-12T00:02:00;20.49;84.53
71291;DHT22;59073;51.994;4.448;2023-09-12T00:04:25;20.49;84.54
71291;DHT22;59073;51.994;4.448;2023-09-12T00:06:51;20.49;84.53
71291;DHT22;59073;51.994;4.448;2023-09-12T00:09:16;20.45;83.70
71291;DHT22;59073;51.994;4.448;2023-09-12T00:11:41;20.26;82.37
71291;DHT22;59073;51.994;4.448;2023-09-12T00:14:09;20.15;82.51
71291;DHT22;59073;51.994;4.448;2023-09-12T00:16:34;20.05;81.95
71291;DHT22;59073;51.994;4.448;2023-09-12T00:19:00;19.85;82.05
71291;DHT22;59073;51.994;4.448;2023-09-12T00:21:25;19.78;81.93
71291;DHT22;59073;51.994;4.448;2023-09-12T00:23:51;19.69;82.15
71291;DHT22;59073;51.994;4.448;2023-09-12T00:26:16;19.66;82.48
71291;DHT22;59073;51.994;4.448;2023-09-12T00:28:42;19.64;82.39
71291;DHT22;59073;51.994;4.448;2023-09-12T00:31:07;19.47;82.87
71291;DHT22;59073;51.994;4.448;2023-09-12T00:33:32;19.30;83.44
71291;DHT22;59073;51.994;4.448;2023-09-12T00:35:58;19.19;83.79
71291;DHT22;59073;51.994;4.448;2023-09-12T00:38:23;19.16;84.14
71291;DHT22;59073;51.994;4.448;2023-09-12T00:40:49;19.20;83.93
71291;DHT22;59073;51.994;4.448;2023-09-12T00:43:16;19.22;83.85
71291;DHT22;59073;51.994;4.448;2023-09-12T00:45:42;19.16;84.07
71291;DHT22;59073;51.994;4.448;2023-09-12T00:48:09;19.22;84.31
71291;DHT22;59073;51.994;4.448;2023-09-12T00:50:36;19.20;84.16
71291;DHT22;59073;51.994;4.448;2023-09-12T00:53:03;19.13;84.13
71291;DHT22;59073;51.994;4.448;2023-09-12T00:55:32;19.01;84.41
71291;DHT22;59073;51.994;4.448;2023-09-12T00:57:58;18.98;84.73
71291;DHT22;59073;51.994;4.448;2023-09-12T01:00:24;18.99;84.83
71291;DHT22;59073;51.994;4.448;2023-09-12T01:02:50;18.98;85.13
71291;DHT22;59073;51.994;4.448;2023-09-12T01:05:17;19.06;85.14
71291;DHT22;59073;51.994;4.448;2023-09-12T01:07:44;19.08;85.51
71291;DHT22;59073;51.994;4.448;2023-09-12T01:10:10;19.12;85.76
71291;DHT22;59073;51.994;4.448;2023-09-12T01:12:35;19.22;85.54
71291;DHT22;59073;51.994;4.448;2023-09-12T01:15:01;19.33;85.07
71291;DHT22;59073;51.994;4.448;2023-09-12T01:17:31;19.43;84.58
71291;DHT22;59073;51.994;4.448;2023-09-12T01:19:56;19.46;84.15
71291;DHT22;59073;51.994;4.448;2023-09-12T01:22:55;19.40;83.92
71291;DHT22;59073;51.994;4.448;2023-09-12T01:28:29;19.23;83.92
71291;DHT22;59073;51.994;4.448;2023-09-12T01:30:58;19.27;83.75
71291;DHT22;59073;51.994;4.448;2023-09-12T01:33:24;19.34;83.78
71291;DHT22;59073;51.994;4.448;2023-09-12T01:35:50;19.37;83.71
71291;DHT22;59073;51.994;4.448;2023-09-12T01:38:15;19.40;83.39
71291;DHT22;59073;51.994;4.448;2023-09-12T01:40:50;19.42;83.47
71291;DHT22;59073;51.994;4.448;2023-09-12T01:43:19;19.39;83.24
71291;DHT22;59073;51.994;4.448;2023-09-12T01:45:48;19.36;83.47
71291;DHT22;59073;51.994;4.448;2023-09-12T01:48:19;19.39;83.75
71291;DHT22;59073;51.994;4.448;2023-09-12T01:50:45;19.34;83.75
71291;DHT22;59073;51.994;4.448;2023-09-12T01:53:12;19.42;83.96
71291;DHT22;59073;51.994;4.448;2023-09-12T01:55:42;19.50;83.94
71291;DHT22;59073;51.994;4.448;2023-09-12T01:58:07;19.60;83.75
71291;DHT22;59073;51.994;4.448;2023-09-12T02:00:33;19.66;83.69
71291;DHT22;59073;51.994;4.448;2023-09-12T02:02:59;19.73;83.64
71291;DHT22;59073;51.994;4.448;2023-09-12T02:05:26;19.74;83.47
71291;DHT22;59073;51.994;4.448;2023-09-12T02:07:51;19.75;83.56
71291;DHT22;59073;51.994;4.448;2023-09-12T02:10:17;19.78;83.50
71291;DHT22;59073;51.994;4.448;2023-09-12T02:12:42;19.80;83.43
71291;DHT22;59073;51.994;4.448;2023-09-12T02:15:08;19.77;83.34
71291;DHT22;59073;51.994;4.448;2023-09-12T02:17:33;19.80;83.34
71291;DHT22;59073;51.994;4.448;2023-09-12T02:19:59;19.85;83.32
71291;DHT22;59073;51.994;4.448;2023-09-12T02:22:24;19.87;82.96
71291;DHT22;59073;51.994;4.448;2023-09-12T02:24:50;19.73;82.50
71291;DHT22;59073;51.994;4.448;2023-09-12T02:27:15;19.53;82.74
71291;DHT22;59073;51.994;4.448;2023-09-12T02:29:42;19.49;82.71
71291;DHT22;59073;51.994;4.448;2023-09-12T02:32:08;19.47;83.06
71291;DHT22;59073;51.994;4.448;2023-09-12T02:34:33;19.56;82.95
71291;DHT22;59073;51.994;4.448;2023-09-12T02:36:59;19.57;82.77
71291;DHT22;59073;51.994;4.448;2023-09-12T02:39:24;19.49;82.96
71291;DHT22;59073;51.994;4.448;2023-09-12T02:41:50;19.40;83.23
71291;DHT22;59073;51.994;4.448;2023-09-12T02:44:15;19.37;83.37
71291;DHT22;59073;51.994;4.448;2023-09-12T02:46:41;19.47;83.50
71291;DHT22;59073;51.994;4.448;2023-09-12T02:49:07;19.52;83.44
71291;DHT22;59073;51.994;4.448;2023-09-12T02:51:32;19.56;83.60
71291;DHT22;59073;51.994;4.448;2023-09-12T02:53:58;19.60;83.31
71291;DHT22;59073;51.994;4.448;2023-09-12T02:56:23;19.61;83.49
71291;DHT22;59073;51.994;4.448;2023-09-12T02:58:49;19.61;83.92
71291;DHT22;59073;51.994;4.448;2023-09-12T03:01:16;19.70;84.17
71291;DHT22;59073;51.994;4.448;2023-09-12T03:03:42;19.84;84.04
71291;DHT22;59073;51.994;4.448;2023-09-12T03:06:07;19.95;84.19
71291;DHT22;59073;51.994;4.448;2023-09-12T03:08:33;20.10;84.35
71291;DHT22;59073;51.994;4.448;2023-09-12T03:10:58;20.21;83.95
71291;DHT22;59073;51.994;4.448;2023-09-12T03:13:27;20.21;83.84
71291;DHT22;59073;51.994;4.448;2023-09-12T03:15:53;20.21;84.00
71291;DHT22;59073;51.994;4.448;2023-09-12T03:18:18;20.12;84.71
71291;DHT22;59073;51.994;4.448;2023-09-12T03:20:44;20.21;84.82
71291;DHT22;59073;51.994;4.448;2023-09-12T03:23:09;20.20;84.90
71291;DHT22;59073;51.994;4.448;2023-09-12T03:25:38;20.18;85.21
71291;DHT22;59073;51.994;4.448;2023-09-12T03:28:05;20.22;85.44
71291;DHT22;59073;51.994;4.448;2023-09-12T03:30:36;20.38;85.29
71291;DHT22;59073;51.994;4.448;2023-09-12T03:33:01;20.48;84.87
71291;DHT22;59073;51.994;4.448;2023-09-12T03:35:28;20.56;84.79
71291;DHT22;59073;51.994;4.448;2023-09-12T03:37:54;20.65;84.43
71291;DHT22;59073;51.994;4.448;2023-09-12T03:40:19;20.68;84.32
71291;DHT22;59073;51.994;4.448;2023-09-12T03:42:45;20.72;84.21
71291;DHT22;59073;51.994;4.448;2023-09-12T03:45:10;20.79;84.04
71291;DHT22;59073;51.994;4.448;2023-09-12T03:47:36;20.82;84.03
71291;DHT22;59073;51.994;4.448;2023-09-12T03:50:02;20.79;83.81
71291;DHT22;59073;51.994;4.448;2023-09-12T03:52:28;20.76;83.86
71291;DHT22;59073;51.994;4.448;2023-09-12T03:54:53;20.79;83.81
71291;DHT22;59073;51.994;4.448;2023-09-12T03:57:19;20.82;83.87
71291;DHT22;59073;51.994;4.448;2023-09-12T03:59:44;20.86;83.89
71291;DHT22;59073;51.994;4.448;2023-09-12T04:02:12;20.92;83.89
71291;DHT22;59073;51.994;4.448;2023-09-12T04:04:38;20.96;83.77
71291;DHT22;59073;51.994;4.448;2023-09-12T04:07:03;21.00;83.63
71291;DHT22;59073;51.994;4.448;2023-09-12T04:09:29;21.03;83.43
71291;DHT22;59073;51.994;4.448;2023-09-12T04:11:54;20.94;82.78
71291;DHT22;59073;51.994;4.448;2023-09-12T04:14:20;20.77;83.45
71291;DHT22;59073;51.994;4.448;2023-09-12T04:16:46;20.65;84.11
71291;DHT22;59073;51.994;4.448;2023-09-12T04:19:13;20.63;84.63
71291;DHT22;59073;51.994;4.448;2023-09-12T04:21:39;20.65;85.03
71291;DHT22;59073;51.994;4.448;2023-09-12T04:24:05;20.79;84.87
71291;DHT22;59073;51.994;4.448;2023-09-12T04:26:31;20.82;84.95
71291;DHT22;59073;51.994;4.448;2023-09-12T04:28:56;20.86;84.81
71291;DHT22;59073;51.994;4.448;2023-09-12T04:31:21;20.86;84.80
71291;DHT22;59073;51.994;4.448;2023-09-12T04:33:47;20.92;84.88
71291;DHT22;59073;51.994;4.448;2023-09-12T04:36:12;20.97;84.93
71291;DHT22;59073;51.994;4.448;2023-09-12T04:38:38;21.04;85.00
71291;DHT22;59073;51.994;4.448;2023-09-12T04:41:03;21.08;84.95
71291;DHT22;59073;51.994;4.448;2023-09-12T04:43:31;21.13;85.07
71291;DHT22;59073;51.994;4.448;2023-09-12T04:45:57;21.24;84.97
71291;DHT22;59073;51.994;4.448;2023-09-12T04:48:22;21.35;84.67
71291;DHT22;59073;51.994;4.448;2023-09-12T04:50:48;21.42;84.63
71291;DHT22;59073;51.994;4.448;2023-09-12T04:53:14;21.50;84.33
71291;DHT22;59073;51.994;4.448;2023-09-12T04:55:39;21.54;84.25
71291;DHT22;59073;51.994;4.448;2023-09-12T04:58:05;21.47;83.61
71291;DHT22;59073;51.994;4.448;2023-09-12T05:00:31;21.44;84.00
71291;DHT22;59073;51.994;4.448;2023-09-12T05:02:57;21.19;84.76
71291;DHT22;59073;51.994;4.448;2023-09-12T05:05:22;21.10;85.16
71291;DHT22;59073;51.994;4.448;2023-09-12T05:07:48;21.17;85.18
71291;DHT22;59073;51.994;4.448;2023-09-12T05:10:13;21.21;85.11
71291;DHT22;59073;51.994;4.448;2023-09-12T05:12:39;21.26;85.15
71291;DHT22;59073;51.994;4.448;2023-09-12T05:15:04;21.24;85.14
71291;DHT22;59073;51.994;4.448;2023-09-12T05:17:30;21.26;85.32
71291;DHT22;59073;51.994;4.448;2023-09-12T05:19:55;21.30;85.14
71291;DHT22;59073;51.994;4.448;2023-09-12T05:22:21;21.35;85.08
71291;DHT22;59073;51.994;4.448;2023-09-12T05:24:46;21.38;84.74
71291;DHT22;59073;51.994;4.448;2023-09-12T05:27:12;21.37;84.87
71291;DHT22;59073;51.994;4.448;2023-09-12T05:29:37;21.31;84.86
71291;DHT22;59073;51.994;4.448;2023-09-12T05:32:04;21.30;84.81
71291;DHT22;59073;51.994;4.448;2023-09-12T05:34:29;21.38;84.97
71291;DHT22;59073;51.994;4.448;2023-09-12T05:36:56;21.41;85.05
71291;DHT22;59073;51.994;4.448;2023-09-12T05:39:21;21.45;85.07
71291;DHT22;59073;51.994;4.448;2023-09-12T05:41:47;21.47;84.91
71291;DHT22;59073;51.994;4.448;2023-09-12T05:44:12;21.50;84.97
71291;DHT22;59073;51.994;4.448;2023-09-12T05:46:43;21.57;84.82
71291;DHT22;59073;51.994;4.448;2023-09-12T05:49:09;21.65;84.87
71291;DHT22;59073;51.994;4.448;2023-09-12T05:51:34;21.69;84.45
71291;DHT22;59073;51.994;4.448;2023-09-12T05:53:59;21.74;84.70
71291;DHT22;59073;51.994;4.448;2023-09-12T05:56:26;21.83;84.19
71291;DHT22;59073;51.994;4.448;2023-09-12T05:58:52;21.83;83.88
71291;DHT22;59073;51.994;4.448;2023-09-12T06:01:18;21.83;83.86
71291;DHT22;59073;51.994;4.448;2023-09-12T06:03:43;21.88;83.98
71291;DHT22;59073;51.994;4.448;2023-09-12T06:06:09;21.92;83.97
71291;DHT22;59073;51.994;4.448;2023-09-12T06:08:34;22.02;83.94
71291;DHT22;59073;51.994;4.448;2023-09-12T06:11:00;22.05;83.70
71291;DHT22;59073;51.994;4.448;2023-09-12T06:13:25;22.01;83.50
71291;DHT22;59073;51.994;4.448;2023-09-12T06:15:51;21.92;83.74
71291;DHT22;59073;51.994;4.448;2023-09-12T06:18:16;21.88;83.88
71291;DHT22;59073;51.994;4.448;2023-09-12T06:20:42;21.81;84.14
71291;DHT22;59073;51.994;4.448;2023-09-12T06:23:07;21.78;84.57
71291;DHT22;59073;51.994;4.448;2023-09-12T06:25:33;21.86;84.31
71291;DHT22;59073;51.994;4.448;2023-09-12T06:27:59;21.68;84.91
71291;DHT22;59073;51.994;4.448;2023-09-12T06:30:24;21.57;85.32
71291;DHT22;59073;51.994;4.448;2023-09-12T06:32:50;21.52;85.62
71291;DHT22;59073;51.994;4.448;2023-09-12T06:35:15;21.82;85.10
71291;DHT22;59073;51.994;4.448;2023-09-12T06:37:41;21.78;85.27
71291;DHT22;59073;51.994;4.448;2023-09-12T06:40:07;21.83;85.07
71291;DHT22;59073;51.994;4.448;2023-09-12T06:42:32;22.05;84.95
71291;DHT22;59073;51.994;4.448;2023-09-12T06:44:58;22.06;84.58
71291;DHT22;59073;51.994;4.448;2023-09-12T06:47:24;22.08;84.75
71291;DHT22;59073;51.994;4.448;2023-09-12T06:49:49;22.19;84.31
71291;DHT22;59073;51.994;4.448;2023-09-12T06:52:14;22.05;83.96
71291;DHT22;59073;51.994;4.448;2023-09-12T06:54:40;22.16;84.33
71291;DHT22;59073;51.994;4.448;2023-09-12T06:57:05;22.26;84.25
71291;DHT22;59073;51.994;4.448;2023-09-12T06:59:31;22.65;82.76
71291;DHT22;59073;51.994;4.448;2023-09-12T07:01:56;23.05;82.17
71291;DHT22;59073;51.994;4.448;2023-09-12T07:04:22;23.37;81.37
71291;DHT22;59073;51.994;4.448;2023-09-12T07:06:47;23.82;80.56
71291;DHT22;59073;51.994;4.448;2023-09-12T07:09:13;23.76;79.37
71291;DHT22;59073;51.994;4.448;2023-09-12T07:11:41;23.61;79.44
71291;DHT22;59073;51.994;4.448;2023-09-12T07:14:06;23.41;79.79
71291;DHT22;59073;51.994;4.448;2023-09-12T07:16:32;23.38;79.88
71291;DHT22;59073;51.994;4.448;2023-09-12T07:18:57;23.53;79.08
71291;DHT22;59073;51.994;4.448;2023-09-12T07:21:23;23.97;78.67
71291;DHT22;59073;51.994;4.448;2023-09-12T07:23:48;24.23;78.77
71291;DHT22;59073;51.994;4.448;2023-09-12T07:26:15;24.13;78.07
71291;DHT22;59073;51.994;4.448;2023-09-12T07:28:41;23.93;78.32
71291;DHT22;59073;51.994;4.448;2023-09-12T07:31:06;23.77;78.28
71291;DHT22;59073;51.994;4.448;2023-09-12T07:33:32;23.59;78.57
71291;DHT22;59073;51.994;4.448;2023-09-12T07:35:58;23.55;78.79
71291;DHT22;59073;51.994;4.448;2023-09-12T07:38:25;23.32;78.93
71291;DHT22;59073;51.994;4.448;2023-09-12T07:40:50;23.28;79.76
71291;DHT22;59073;51.994;4.448;2023-09-12T07:43:16;23.69;80.25
71291;DHT22;59073;51.994;4.448;2023-09-12T07:45:42;23.72;79.29
71291;DHT22;59073;51.994;4.448;2023-09-12T07:48:08;23.51;78.51
71291;DHT22;59073;51.994;4.448;2023-09-12T07:50:35;23.56;79.26
71291;DHT22;59073;51.994;4.448;2023-09-12T07:53:07;23.73;78.95
71291;DHT22;59073;51.994;4.448;2023-09-12T07:55:39;23.96;79.04
71291;DHT22;59073;51.994;4.448;2023-09-12T07:58:17;24.32;79.73
71291;DHT22;59073;51.994;4.448;2023-09-12T08:00:47;24.50;77.28
71291;DHT22;59073;51.994;4.448;2023-09-12T08:03:12;24.42;77.05
71291;DHT22;59073;51.994;4.448;2023-09-12T08:05:38;24.50;76.85
71291;DHT22;59073;51.994;4.448;2023-09-12T08:08:04;24.47;76.73
71291;DHT22;59073;51.994;4.448;2023-09-12T08:10:29;24.25;76.24
71291;DHT22;59073;51.994;4.448;2023-09-12T08:12:55;24.37;76.80
71291;DHT22;59073;51.994;4.448;2023-09-12T08:15:21;24.61;75.75
71291;DHT22;59073;51.994;4.448;2023-09-12T08:17:46;24.83;75.69
71291;DHT22;59073;51.994;4.448;2023-09-12T08:20:17;25.29;76.60
71291;DHT22;59073;51.994;4.448;2023-09-12T08:22:42;26.14;75.49
71291;DHT22;59073;51.994;4.448;2023-09-12T08:25:08;26.59;74.50
71291;DHT22;59073;51.994;4.448;2023-09-12T08:27:35;26.48;73.16
71291;DHT22;59073;51.994;4.448;2023-09-12T08:30:01;26.59;72.20
71291;DHT22;59073;51.994;4.448;2023-09-12T08:32:26;26.75;71.31
71291;DHT22;59073;51.994;4.448;2023-09-12T08:34:51;26.32;71.36
71291;DHT22;59073;51.994;4.448;2023-09-12T08:37:17;26.05;71.36
71291;DHT22;59073;51.994;4.448;2023-09-12T08:39:44;26.25;72.36
71291;DHT22;59073;51.994;4.448;2023-09-12T08:42:15;26.55;71.56
71291;DHT22;59073;51.994;4.448;2023-09-12T08:44:42;26.42;71.11
71291;DHT22;59073;51.994;4.448;2023-09-12T08:47:09;26.73;70.68
71291;DHT22;59073;51.994;4.448;2023-09-12T08:49:37;26.55;72.29
71291;DHT22;59073;51.994;4.448;2023-09-12T08:52:04;26.08;71.68
71291;DHT22;59073;51.994;4.448;2023-09-12T08:54:31;26.06;73.70
71291;DHT22;59073;51.994;4.448;2023-09-12T08:56:57;26.14;72.13
71291;DHT22;59073;51.994;4.448;2023-09-12T08:59:23;26.25;72.21
71291;DHT22;59073;51.994;4.448;2023-09-12T09:01:50;26.62;72.10
71291;DHT22;59073;51.994;4.448;2023-09-12T09:04:18;26.72;72.23
71291;DHT22;59073;51.994;4.448;2023-09-12T09:06:45;27.06;71.74
71291;DHT22;59073;51.994;4.448;2023-09-12T09:09:12;27.15;70.73
71291;DHT22;59073;51.994;4.448;2023-09-12T09:11:38;27.44;69.92
71291;DHT22;59073;51.994;4.448;2023-09-12T09:14:04;27.35;70.32
71291;DHT22;59073;51.994;4.448;2023-09-12T09:16:30;27.45;68.89
71291;DHT22;59073;51.994;4.448;2023-09-12T09:19:04;27.52;69.39
71291;DHT22;59073;51.994;4.448;2023-09-12T09:21:37;28.05;68.04
71291;DHT22;59073;51.994;4.448;2023-09-12T09:24:10;28.05;67.64
71291;DHT22;59073;51.994;4.448;2023-09-12T09:26:54;27.95;66.79
71291;DHT22;59073;51.994;4.448;2023-09-12T09:29:25;27.66;68.01
71291;DHT22;59073;51.994;4.448;2023-09-12T09:31:51;27.23;69.89
71291;DHT22;59073;51.994;4.448;2023-09-12T09:34:19;26.59;68.73
71291;DHT22;59073;51.994;4.448;2023-09-12T09:36:50;26.25;71.11
71291;DHT22;59073;51.994;4.448;2023-09-12T09:39:22;25.97;70.68
71291;DHT22;59073;51.994;4.448;2023-09-12T09:41:53;26.00;71.42
71291;DHT22;59073;51.994;4.448;2023-09-12T09:44:24;26.25;71.67
71291;DHT22;59073;51.994;4.448;2023-09-12T09:46:55;26.02;71.46
71291;DHT22;59073;51.994;4.448;2023-09-12T09:49:23;26.12;72.24
71291;DHT22;59073;51.994;4.448;2023-09-12T09:51:48;26.33;72.53
71291;DHT22;59073;51.994;4.448;2023-09-12T09:54:15;26.69;72.35
71291;DHT22;59073;51.994;4.448;2023-09-12T09:59:17;26.79;70.69
71291;DHT22;59073;51.994;4.448;2023-09-12T10:01:45;27.07;71.01
71291;DHT22;59073;51.994;4.448;2023-09-12T10:04:11;27.03;69.33
71291;DHT22;59073;51.994;4.448;2023-09-12T10:06:38;26.45;70.57
71291;DHT22;59073;51.994;4.448;2023-09-12T10:09:14;25.88;72.35
71291;DHT22;59073;51.994;4.448;2023-09-12T10:11:42;25.53;72.85
71291;DHT22;59073;51.994;4.448;2023-09-12T10:14:09;25.30;73.73
71291;DHT22;59073;51.994;4.448;2023-09-12T10:16:48;25.44;74.07
71291;DHT22;59073;51.994;4.448;2023-09-12T10:19:25;25.42;73.31
71291;DHT22;59073;51.994;4.448;2023-09-12T10:24:43;25.47;73.23
71291;DHT22;59073;51.994;4.448;2023-09-12T10:27:12;25.44;72.92
71291;DHT22;59073;51.994;4.448;2023-09-12T10:29:37;25.27;73.71
71291;DHT22;59073;51.994;4.448;2023-09-12T10:32:03;24.91;73.89
71291;DHT22;59073;51.994;4.448;2023-09-12T10:34:32;24.67;74.07
71291;DHT22;59073;51.994;4.448;2023-09-12T10:36:58;24.76;75.12
71291;DHT22;59073;51.994;4.448;2023-09-12T10:39:31;24.73;74.71
71291;DHT22;59073;51.994;4.448;2023-09-12T10:41:58;24.73;73.71
71291;DHT22;59073;51.994;4.448;2023-09-12T10:44:25;24.83;74.13
71291;DHT22;59073;51.994;4.448;2023-09-12T10:46:52;24.93;73.45
71291;DHT22;59073;51.994;4.448;2023-09-12T10:49:19;24.96;73.50
71291;DHT22;59073;51.994;4.448;2023-09-12T10:51:46;24.96;74.19
71291;DHT22;59073;51.994;4.448;2023-09-12T10:54:25;25.01;75.74
71291;DHT22;59073;51.994;4.448;2023-09-12T10:57:08;24.85;75.63
71291;DHT22;59073;51.994;4.448;2023-09-12T10:59:36;24.86;76.59
71291;DHT22;59073;51.994;4.448;2023-09-12T11:02:33;24.91;76.54
71291;DHT22;59073;51.994;4.448;2023-09-12T11:05:02;24.68;76.51
71291;DHT22;59073;51.994;4.448;2023-09-12T11:07:33;24.62;76.95
71291;DHT22;59073;51.994;4.448;2023-09-12T11:12:47;24.44;76.89
71291;DHT22;59073;51.994;4.448;2023-09-12T11:15:14;24.60;77.34
71291;DHT22;59073;51.994;4.448;2023-09-12T11:17:44;24.52;77.29
71291;DHT22;59073;51.994;4.448;2023-09-12T11:20:11;24.47;77.41
71291;DHT22;59073;51.994;4.448;2023-09-12T11:25:23;23.86;76.65
71291;DHT22;59073;51.994;4.448;2023-09-12T11:30:18;23.15;79.58
71291;DHT22;59073;51.994;4.448;2023-09-12T11:32:45;23.22;80.34
71291;DHT22;59073;51.994;4.448;2023-09-12T11:35:13;23.37;80.23
71291;DHT22;59073;51.994;4.448;2023-09-12T11:37:39;23.43;79.83
71291;DHT22;59073;51.994;4.448;2023-09-12T11:42:39;23.73;79.69
71291;DHT22;59073;51.994;4.448;2023-09-12T11:45:08;23.97;79.42
71291;DHT22;59073;51.994;4.448;2023-09-12T11:47:34;24.31;80.57
71291;DHT22;59073;51.994;4.448;2023-09-12T11:49:59;24.61;78.66
71291;DHT22;59073;51.994;4.448;2023-09-12T11:52:25;24.88;78.57
71291;DHT22;59073;51.994;4.448;2023-09-12T11:54:50;25.02;77.32
71291;DHT22;59073;51.994;4.448;2023-09-12T11:57:16;25.20;76.59
71291;DHT22;59073;51.994;4.448;2023-09-12T11:59:43;25.33;75.92
71291;DHT22;59073;51.994;4.448;2023-09-12T12:02:11;25.67;76.52
71291;DHT22;59073;51.994;4.448;2023-09-12T12:04:37;25.74;72.10
71291;DHT22;59073;51.994;4.448;2023-09-12T12:07:03;25.92;74.43
71291;DHT22;59073;51.994;4.448;2023-09-12T12:09:32;25.80;71.17
71291;DHT22;59073;51.994;4.448;2023-09-12T12:12:14;25.81;73.41
71291;DHT22;59073;51.994;4.448;2023-09-12T12:14:41;25.85;72.97
71291;DHT22;59073;51.994;4.448;2023-09-12T12:17:11;25.81;71.87
71291;DHT22;59073;51.994;4.448;2023-09-12T12:19:38;25.90;70.55
71291;DHT22;59073;51.994;4.448;2023-09-12T12:22:06;25.85;70.26
71291;DHT22;59073;51.994;4.448;2023-09-12T12:24:44;26.00;71.80
71291;DHT22;59073;51.994;4.448;2023-09-12T12:27:10;26.05;71.41
71291;DHT22;59073;51.994;4.448;2023-09-12T12:29:37;26.12;70.80
71291;DHT22;59073;51.994;4.448;2023-09-12T12:32:04;26.15;71.12
71291;DHT22;59073;51.994;4.448;2023-09-12T12:34:30;26.18;69.95
71291;DHT22;59073;51.994;4.448;2023-09-12T12:36:56;26.38;69.49
71291;DHT22;59073;51.994;4.448;2023-09-12T12:39:22;26.38;70.55
71291;DHT22;59073;51.994;4.448;2023-09-12T12:41:51;25.90;72.52
71291;DHT22;59073;51.994;4.448;2023-09-12T12:44:17;25.06;74.93
71291;DHT22;59073;51.994;4.448;2023-09-12T12:46:50;25.39;72.52
71291;DHT22;59073;51.994;4.448;2023-09-12T12:49:17;25.78;71.90
71291;DHT22;59073;51.994;4.448;2023-09-12T12:51:45;25.51;73.23
71291;DHT22;59073;51.994;4.448;2023-09-12T12:54:11;25.90;70.77
71291;DHT22;59073;51.994;4.448;2023-09-12T12:56:37;25.98;71.10
71291;DHT22;59073;51.994;4.448;2023-09-12T12:59:05;26.24;71.07
71291;DHT22;59073;51.994;4.448;2023-09-12T13:01:37;26.36;70.51
71291;DHT22;59073;51.994;4.448;2023-09-12T13:04:07;26.21;72.84
71291;DHT22;59073;51.994;4.448;2023-09-12T13:06:32;24.98;73.37
71291;DHT22;59073;51.994;4.448;2023-09-12T13:09:01;24.31;77.50
71291;DHT22;59073;51.994;4.448;2023-09-12T13:11:30;23.83;78.25
71291;DHT22;59073;51.994;4.448;2023-09-12T13:13:56;23.92;79.87
71291;DHT22;59073;51.994;4.448;2023-09-12T13:16:22;24.01;78.09
71291;DHT22;59073;51.994;4.448;2023-09-12T13:18:47;24.25;76.77
71291;DHT22;59073;51.994;4.448;2023-09-12T13:21:12;24.50;76.29
71291;DHT22;59073;51.994;4.448;2023-09-12T13:23:38;24.41;76.15
71291;DHT22;59073;51.994;4.448;2023-09-12T13:26:05;24.32;77.27
71291;DHT22;59073;51.994;4.448;2023-09-12T13:28:31;24.13;76.96
71291;DHT22;59073;51.994;4.448;2023-09-12T13:30:56;24.09;77.67
71291;DHT22;59073;51.994;4.448;2023-09-12T13:33:25;24.20;77.74
71291;DHT22;59073;51.994;4.448;2023-09-12T13:35:50;24.13;77.77
71291;DHT22;59073;51.994;4.448;2023-09-12T13:38:17;23.74;75.90
71291;DHT22;59073;51.994;4.448;2023-09-12T13:40:45;23.59;77.64
71291;DHT22;59073;51.994;4.448;2023-09-12T13:43:10;22.86;80.57
71291;DHT22;59073;51.994;4.448;2023-09-12T13:45:36;23.01;79.41
71291;DHT22;59073;51.994;4.448;2023-09-12T13:48:03;23.18;78.49
71291;DHT22;59073;51.994;4.448;2023-09-12T13:50:30;23.11;78.78
71291;DHT22;59073;51.994;4.448;2023-09-12T13:52:57;22.91;78.90
71291;DHT22;59073;51.994;4.448;2023-09-12T13:55:25;22.77;80.02
71291;DHT22;59073;51.994;4.448;2023-09-12T13:57:50;22.16;83.81
71291;DHT22;59073;51.994;4.448;2023-09-12T14:00:16;21.62;85.17
71291;DHT22;59073;51.994;4.448;2023-09-12T14:02:41;21.21;85.43
71291;DHT22;59073;51.994;4.448;2023-09-12T14:05:07;20.90;85.87
71291;DHT22;59073;51.994;4.448;2023-09-12T14:07:32;20.55;86.65
71291;DHT22;59073;51.994;4.448;2023-09-12T14:09:58;20.56;86.88
71291;DHT22;59073;51.994;4.448;2023-09-12T14:12:23;20.61;87.06
71291;DHT22;59073;51.994;4.448;2023-09-12T14:14:49;20.46;87.84
71291;DHT22;59073;51.994;4.448;2023-09-12T14:17:15;20.69;87.94
71291;DHT22;59073;51.994;4.448;2023-09-12T14:19:40;20.82;88.08
71291;DHT22;59073;51.994;4.448;2023-09-12T14:22:06;20.79;87.99
71291;DHT22;59073;51.994;4.448;2023-09-12T14:24:31;20.94;88.07
71291;DHT22;59073;51.994;4.448;2023-09-12T14:26:57;20.92;87.93
71291;DHT22;59073;51.994;4.448;2023-09-12T14:29:22;21.02;87.83
71291;DHT22;59073;51.994;4.448;2023-09-12T14:31:49;20.99;86.83
71291;DHT22;59073;51.994;4.448;2023-09-12T14:34:26;21.04;87.57
71291;DHT22;59073;51.994;4.448;2023-09-12T14:36:56;21.15;87.27
71291;DHT22;59073;51.994;4.448;2023-09-12T14:39:25;21.23;86.49
71291;DHT22;59073;51.994;4.448;2023-09-12T14:41:51;21.45;86.67
71291;DHT22;59073;51.994;4.448;2023-09-12T14:44:18;21.59;85.75
71291;DHT22;59073;51.994;4.448;2023-09-12T14:46:43;21.86;86.19
71291;DHT22;59073;51.994;4.448;2023-09-12T14:49:09;22.03;85.79
71291;DHT22;59073;51.994;4.448;2023-09-12T14:51:36;22.01;84.76
71291;DHT22;59073;51.994;4.448;2023-09-12T14:54:05;21.86;84.78
71291;DHT22;59073;51.994;4.448;2023-09-12T14:56:31;21.99;85.00
71291;DHT22;59073;51.994;4.448;2023-09-12T14:58:57;22.14;84.46
71291;DHT22;59073;51.994;4.448;2023-09-12T15:01:22;22.26;84.32
71291;DHT22;59073;51.994;4.448;2023-09-12T15:03:50;22.24;84.23
71291;DHT22;59073;51.994;4.448;2023-09-12T15:06:16;22.12;83.49
71291;DHT22;59073;51.994;4.448;2023-09-12T15:08:42;22.22;84.01
71291;DHT22;59073;51.994;4.448;2023-09-12T15:11:07;22.26;83.86
71291;DHT22;59073;51.994;4.448;2023-09-12T15:13:32;22.30;83.98
71291;DHT22;59073;51.994;4.448;2023-09-12T15:15:58;22.50;83.41
71291;DHT22;59073;51.994;4.448;2023-09-12T15:18:23;22.64;83.41
71291;DHT22;59073;51.994;4.448;2023-09-12T15:20:51;22.86;83.40
71291;DHT22;59073;51.994;4.448;2023-09-12T15:23:17;22.75;83.18
71291;DHT22;59073;51.994;4.448;2023-09-12T15:25:42;22.80;83.21
71291;DHT22;59073;51.994;4.448;2023-09-12T15:28:08;22.90;83.10
71291;DHT22;59073;51.994;4.448;2023-09-12T15:30:33;22.91;82.48
71291;DHT22;59073;51.994;4.448;2023-09-12T15:32:59;22.98;81.58
71291;DHT22;59073;51.994;4.448;2023-09-12T15:35:24;23.14;81.59
71291;DHT22;59073;51.994;4.448;2023-09-12T15:37:50;23.15;81.52
71291;DHT22;59073;51.994;4.448;2023-09-12T15:40:16;23.26;81.43
71291;DHT22;59073;51.994;4.448;2023-09-12T15:42:42;23.42;81.16
71291;DHT22;59073;51.994;4.448;2023-09-12T15:45:07;23.62;80.83
71291;DHT22;59073;51.994;4.448;2023-09-12T15:47:35;23.63;80.46